Аэропорт
Петропавловск (UHPP)

 UHPP / PKC
ЗЦ Хабаровск
Петропавловск-Камчатский (UHPP)
Петропавловск-Камчатский (UHPP)
 53.16790, 158.45399  / 131 ft

 UHPP 250800Z 31009MPS 9999 NSC M02/M10 Q0998 R34L/CLRD70 NOSIG RMK QFE745/0993
 TAF UHPP 250744Z 2509/2615 31008G17MPS 9999 BKN020CB TEMPO 2509/2515 1000 SHSN BLSN BKN003 OVC015CB FM251500 34003G12MPS 9999 SCT030CB
показать схемы
Название сценария Тип сценария Flight Simulator 9 Flight Simulator X Prepar3D v2 Prepar3D v3 Prepar3D v4 xPlane
uhpp-scenery-fs9-0806 бесплатный


2020 © VATRUS division (Privacy Policy)